createdAt,value
2023-02-07T00:01:07.514Z,14.02
2023-02-07T00:02:39.168Z,15.05
2023-02-07T00:04:10.783Z,14.80
2023-02-07T00:05:42.446Z,13.93
2023-02-07T00:07:14.078Z,14.35
2023-02-07T00:08:47.253Z,14.07
2023-02-07T00:10:18.957Z,13.93
2023-02-07T00:11:56.322Z,14.05
2023-02-07T00:13:28.012Z,14.75
2023-02-07T00:14:59.654Z,14.20
2023-02-07T00:16:31.325Z,13.82
2023-02-07T00:18:03.063Z,13.73
2023-02-07T00:19:34.764Z,13.63
2023-02-07T00:21:07.498Z,12.57
2023-02-07T00:22:39.238Z,13.07
2023-02-07T00:24:12.212Z,13.75
2023-02-07T00:25:45.721Z,13.55
2023-02-07T00:27:17.651Z,12.85
2023-02-07T00:28:49.452Z,14.18
2023-02-07T00:30:21.236Z,13.60
2023-02-07T00:31:52.894Z,12.95
2023-02-07T00:33:24.622Z,14.68
2023-02-07T00:34:56.210Z,15.70
2023-02-07T00:36:29.086Z,14.25
2023-02-07T00:38:00.700Z,14.38
2023-02-07T00:39:33.837Z,14.63
2023-02-07T00:41:05.599Z,15.40
2023-02-07T00:42:37.221Z,15.57
2023-02-07T00:44:09.082Z,15.77
2023-02-07T00:45:40.779Z,14.45
2023-02-07T00:47:12.438Z,15.52
2023-02-07T00:48:44.118Z,14.90
2023-02-07T00:50:15.805Z,16.05
2023-02-07T00:51:47.445Z,15.40
2023-02-07T00:53:19.182Z,15.35
2023-02-07T00:54:52.210Z,16.15
2023-02-07T00:56:24.873Z,16.58
2023-02-07T00:57:56.486Z,17.15
2023-02-07T00:59:28.135Z,16.30
2023-02-07T01:01:00.116Z,16.27
2023-02-07T01:02:31.862Z,15.43
2023-02-07T01:04:03.787Z,16.88
2023-02-07T01:05:35.847Z,16.85
2023-02-07T01:07:08.324Z,17.38
2023-02-07T01:08:39.937Z,17.00
2023-02-07T01:10:12.903Z,16.52
2023-02-07T01:11:44.532Z,16.92
2023-02-07T01:13:16.399Z,17.98
2023-02-07T01:14:48.237Z,17.30
2023-02-07T01:16:20.266Z,17.75
2023-02-07T01:17:51.949Z,17.27
2023-02-07T01:19:23.578Z,15.63
2023-02-07T01:20:55.218Z,16.55
2023-02-07T01:22:26.896Z,16.70
2023-02-07T01:23:58.867Z,16.23
2023-02-07T01:25:32.039Z,16.50
2023-02-07T01:27:03.955Z,16.85
2023-02-07T01:28:35.619Z,18.00
2023-02-07T01:30:07.896Z,17.67
2023-02-07T01:31:40.726Z,17.17
2023-02-07T01:33:12.477Z,16.52
2023-02-07T01:34:44.111Z,17.77
2023-02-07T01:36:16.223Z,16.52
2023-02-07T01:37:47.819Z,16.58
2023-02-07T01:39:19.455Z,17.35
2023-02-07T01:40:52.497Z,17.60
2023-02-07T01:42:25.100Z,17.98
2023-02-07T01:43:59.007Z,17.98
2023-02-07T01:45:32.671Z,18.35
2023-02-07T01:47:04.315Z,17.35
2023-02-07T01:48:36.012Z,18.70
2023-02-07T01:50:07.650Z,16.95
2023-02-07T01:51:39.789Z,18.23
2023-02-07T01:53:11.571Z,19.83
2023-02-07T01:54:43.215Z,19.23
2023-02-07T01:56:29.666Z,19.58
2023-02-07T01:58:02.904Z,19.00
2023-02-07T01:59:35.707Z,20.30
2023-02-07T02:01:10.071Z,20.77
2023-02-07T02:02:41.871Z,22.23
2023-02-07T02:04:13.701Z,20.58
2023-02-07T02:05:45.440Z,20.25
2023-02-07T02:07:17.101Z,19.88
2023-02-07T02:08:48.707Z,20.02
2023-02-07T02:10:21.708Z,20.70
2023-02-07T02:12:07.660Z,21.15
2023-02-07T02:13:42.821Z,19.60
2023-02-07T02:15:20.663Z,21.55
2023-02-07T02:16:55.255Z,21.13
2023-02-07T02:18:38.570Z,21.13
2023-02-07T02:20:55.002Z,19.05
2023-02-07T02:22:57.530Z,18.23
2023-02-07T02:24:56.366Z,19.20
2023-02-07T02:26:42.179Z,20.13
2023-02-07T02:28:46.045Z,19.40
2023-02-07T02:30:44.645Z,19.75
2023-02-07T02:32:49.659Z,18.40
2023-02-07T02:34:22.367Z,19.15
2023-02-07T02:35:59.208Z,19.95
2023-02-07T02:37:35.530Z,18.23
2023-02-07T02:39:09.271Z,18.15
2023-02-07T02:40:44.309Z,18.35
2023-02-07T02:42:19.431Z,18.40
2023-02-07T02:43:52.329Z,19.92
2023-02-07T02:45:25.981Z,19.60
2023-02-07T02:47:01.285Z,19.67
2023-02-07T02:48:34.312Z,19.60
2023-02-07T02:50:09.604Z,17.75
2023-02-07T02:51:41.274Z,20.17
2023-02-07T02:53:12.947Z,19.90
2023-02-07T02:54:44.570Z,19.02
2023-02-07T02:56:41.075Z,19.02
2023-02-07T02:58:20.230Z,19.20
2023-02-07T03:00:02.551Z,19.63
2023-02-07T03:01:38.423Z,18.63
2023-02-07T03:03:34.533Z,19.25
2023-02-07T03:05:13.582Z,19.17
2023-02-07T03:06:52.752Z,19.10
2023-02-07T03:08:28.898Z,19.90
2023-02-07T03:10:02.805Z,18.73
2023-02-07T03:11:37.851Z,18.80
2023-02-07T03:13:12.670Z,20.35
2023-02-07T03:14:48.621Z,20.15
2023-02-07T03:16:22.138Z,18.75
2023-02-07T03:17:55.021Z,18.75
2023-02-07T03:19:28.704Z,19.88
2023-02-07T03:21:03.627Z,21.17
2023-02-07T03:22:35.291Z,20.20
2023-02-07T03:24:11.480Z,20.17
2023-02-07T03:25:43.101Z,20.60
2023-02-07T03:27:16.991Z,20.27
2023-02-07T03:28:48.602Z,19.63
2023-02-07T03:30:20.481Z,19.25
2023-02-07T03:31:58.041Z,19.65
2023-02-07T03:33:29.925Z,19.52
2023-02-07T03:35:04.537Z,20.67
2023-02-07T03:36:39.909Z,19.52
2023-02-07T03:38:12.295Z,20.98
2023-02-07T03:39:43.942Z,20.00
2023-02-07T03:41:17.855Z,18.88
2023-02-07T03:42:53.807Z,20.85
2023-02-07T03:44:26.192Z,19.60
2023-02-07T03:45:57.874Z,21.08
2023-02-07T03:47:29.520Z,21.23
2023-02-07T03:49:01.168Z,20.42
2023-02-07T03:50:32.791Z,21.02
2023-02-07T03:52:05.964Z,20.35
2023-02-07T03:53:37.577Z,19.77
2023-02-07T03:55:10.029Z,21.65
2023-02-07T03:56:41.738Z,21.95
2023-02-07T03:58:13.376Z,19.25
2023-02-07T03:59:44.982Z,21.58
2023-02-07T04:01:16.688Z,23.20
2023-02-07T04:02:48.387Z,21.15
2023-02-07T04:04:20.018Z,22.83
2023-02-07T04:05:51.652Z,21.77
2023-02-07T04:07:24.674Z,21.15
2023-02-07T04:08:56.319Z,21.58
2023-02-07T04:10:28.074Z,20.75
2023-02-07T04:11:59.765Z,22.17
2023-02-07T04:13:31.403Z,21.67
2023-02-07T04:15:04.650Z,22.35
2023-02-07T04:16:36.376Z,21.92
2023-02-07T04:18:08.060Z,20.88
2023-02-07T04:19:39.722Z,20.00
2023-02-07T04:21:11.359Z,21.48
2023-02-07T04:22:44.311Z,21.92
2023-02-07T04:24:15.939Z,21.27
2023-02-07T04:25:47.596Z,21.83
2023-02-07T04:27:19.330Z,19.17
2023-02-07T04:28:51.027Z,20.27
2023-02-07T04:30:22.765Z,21.40
2023-02-07T04:31:54.492Z,21.40
2023-02-07T04:33:26.203Z,20.88
2023-02-07T04:34:57.904Z,21.40
2023-02-07T04:36:32.230Z,21.17
2023-02-07T04:38:05.394Z,22.05
2023-02-07T04:39:37.092Z,22.05
2023-02-07T04:41:08.763Z,20.38
2023-02-07T04:42:40.393Z,20.85
2023-02-07T04:44:12.017Z,21.77
2023-02-07T04:45:45.389Z,22.67
2023-02-07T04:47:17.026Z,21.25
2023-02-07T04:48:49.151Z,22.77
2023-02-07T04:50:20.858Z,23.13
2023-02-07T04:51:54.507Z,21.65
2023-02-07T04:53:39.804Z,22.13
2023-02-07T04:55:43.877Z,21.58
2023-02-07T04:57:47.086Z,20.95
2023-02-07T04:59:27.068Z,21.20
2023-02-07T05:04:01.103Z,22.00
2023-02-07T05:05:47.725Z,22.15
2023-02-07T05:11:58.462Z,22.20
2023-02-07T05:13:54.403Z,22.95
2023-02-07T05:18:03.932Z,24.48
2023-02-07T05:27:18.359Z,24.23
2023-02-07T05:28:51.375Z,23.80
2023-02-07T05:30:23.126Z,26.27
2023-02-07T05:32:13.543Z,25.23
2023-02-07T05:33:45.117Z,23.83
2023-02-07T05:35:16.916Z,24.30
2023-02-07T05:36:48.517Z,24.17
2023-02-07T05:38:20.427Z,24.75
2023-02-07T05:39:52.033Z,25.13
2023-02-07T05:41:23.675Z,23.60
2023-02-07T05:42:55.362Z,25.85
2023-02-07T05:44:28.364Z,24.67
2023-02-07T05:45:59.968Z,26.88
2023-02-07T05:47:31.664Z,24.08
2023-02-07T05:49:03.462Z,25.70
2023-02-07T05:50:35.133Z,29.30
2023-02-07T05:52:06.780Z,29.15
2023-02-07T05:53:38.908Z,27.13
2023-02-07T05:55:11.401Z,28.70
2023-02-07T05:56:43.067Z,28.38
2023-02-07T05:58:14.668Z,26.85
2023-02-07T05:59:47.731Z,29.27
2023-02-07T06:01:19.346Z,27.08
2023-02-07T06:02:51.104Z,26.30
2023-02-07T06:04:22.887Z,26.45
2023-02-07T06:05:54.578Z,25.73
2023-02-07T06:07:26.210Z,25.92
2023-02-07T06:08:57.887Z,26.48
2023-02-07T06:10:29.665Z,26.67
2023-02-07T06:12:03.136Z,27.55
2023-02-07T06:13:36.639Z,25.60
2023-02-07T06:15:10.257Z,25.02
2023-02-07T06:16:43.821Z,25.25
2023-02-07T06:18:15.496Z,25.98
2023-02-07T06:19:47.155Z,24.73
2023-02-07T06:21:18.911Z,23.92
2023-02-07T06:22:50.582Z,24.58
2023-02-07T06:24:22.511Z,25.15
2023-02-07T06:25:54.469Z,25.60
2023-02-07T06:27:26.226Z,24.48
2023-02-07T06:28:57.914Z,25.67
2023-02-07T06:30:30.917Z,26.42
2023-02-07T06:32:02.705Z,27.58
2023-02-07T06:33:34.530Z,25.42
2023-02-07T06:35:07.045Z,25.25
2023-02-07T06:36:40.924Z,26.02
2023-02-07T06:38:12.619Z,25.33
2023-02-07T06:39:44.328Z,26.83
2023-02-07T06:41:15.998Z,27.63
2023-02-07T06:42:47.728Z,26.63
2023-02-07T06:44:19.546Z,26.77
2023-02-07T06:45:52.679Z,27.15
2023-02-07T06:47:24.290Z,26.58
2023-02-07T06:48:55.995Z,26.77
2023-02-07T06:50:27.622Z,26.65
2023-02-07T06:51:59.269Z,26.85
2023-02-07T06:53:30.888Z,25.83
2023-02-07T06:55:02.525Z,27.17
2023-02-07T06:56:34.143Z,26.83
2023-02-07T06:58:06.060Z,27.67
2023-02-07T06:59:38.198Z,24.92
2023-02-07T07:01:11.419Z,27.13
2023-02-07T07:02:43.064Z,24.90
2023-02-07T07:04:14.743Z,25.30
2023-02-07T07:05:46.460Z,26.55
2023-02-07T07:07:18.120Z,25.38
2023-02-07T07:08:51.759Z,26.92
2023-02-07T07:10:23.671Z,25.40
2023-02-07T07:11:55.367Z,25.35
2023-02-07T07:13:27.081Z,26.17
2023-02-07T07:14:58.686Z,26.27
2023-02-07T07:16:31.670Z,26.17
2023-02-07T07:18:03.618Z,27.15
2023-02-07T07:19:35.258Z,26.98
2023-02-07T07:21:09.112Z,25.98
2023-02-07T07:22:40.835Z,25.88
2023-02-07T07:24:12.459Z,26.42
2023-02-07T07:25:44.091Z,27.23
2023-02-07T07:27:15.762Z,25.75
2023-02-07T07:28:47.379Z,25.10
2023-02-07T07:30:19.097Z,26.60
2023-02-07T07:31:52.198Z,26.42
2023-02-07T07:33:23.855Z,25.42
2023-02-07T07:34:55.651Z,26.05
2023-02-07T07:36:27.331Z,27.02
2023-02-07T07:37:59.160Z,26.63
2023-02-07T07:39:30.840Z,27.67
2023-02-07T07:41:02.542Z,25.65
2023-02-07T07:42:35.451Z,26.35
2023-02-07T07:44:07.080Z,27.70
2023-02-07T07:45:38.712Z,26.50
2023-02-07T07:47:12.991Z,27.02
2023-02-07T07:48:44.599Z,25.83
2023-02-07T07:50:16.265Z,26.33
2023-02-07T07:51:47.999Z,24.77
2023-02-07T07:53:20.205Z,24.73
2023-02-07T07:54:51.862Z,26.33
2023-02-07T07:56:23.494Z,25.25
2023-02-07T07:57:55.178Z,26.13
2023-02-07T07:59:26.941Z,26.15
2023-02-07T08:00:58.692Z,27.58
2023-02-07T08:02:31.726Z,24.95
2023-02-07T08:04:03.968Z,25.63
2023-02-07T08:05:35.760Z,25.30
2023-02-07T08:07:07.423Z,25.10
2023-02-07T08:08:39.082Z,25.75
2023-02-07T08:10:10.715Z,24.10
2023-02-07T08:11:43.674Z,27.15
2023-02-07T08:13:16.830Z,26.85
2023-02-07T08:14:48.599Z,25.63
2023-02-07T08:16:20.533Z,26.42
2023-02-07T08:17:53.638Z,25.58
2023-02-07T08:19:25.321Z,25.35
2023-02-07T08:20:57.023Z,24.90
2023-02-07T08:22:28.912Z,26.30
2023-02-07T08:24:00.712Z,25.88
2023-02-07T08:25:32.443Z,25.85
2023-02-07T08:27:04.366Z,25.20
2023-02-07T08:28:36.149Z,25.52
2023-02-07T08:30:09.167Z,25.27
2023-02-07T08:31:40.906Z,24.55
2023-02-07T08:33:14.231Z,26.27
2023-02-07T08:34:45.943Z,25.23
2023-02-07T08:36:17.643Z,24.55
2023-02-07T08:37:50.276Z,25.52
2023-02-07T08:39:22.010Z,23.67
2023-02-07T08:40:53.664Z,24.08
2023-02-07T08:42:25.360Z,24.08
2023-02-07T08:43:57.123Z,24.02
2023-02-07T08:45:28.955Z,22.77
2023-02-07T08:47:00.705Z,23.17
2023-02-07T08:48:33.802Z,22.73
2023-02-07T08:50:06.683Z,23.15
2023-02-07T08:51:38.867Z,23.35
2023-02-07T08:53:10.555Z,23.05
2023-02-07T08:54:42.300Z,22.23
2023-02-07T08:56:14.069Z,24.05
2023-02-07T08:57:45.703Z,22.60
2023-02-07T08:59:17.453Z,23.00
2023-02-07T09:00:49.177Z,23.45
2023-02-07T09:02:21.338Z,22.95
2023-02-07T09:03:56.675Z,22.55
2023-02-07T09:05:28.693Z,22.80
2023-02-07T09:07:00.589Z,22.95
2023-02-07T09:08:32.492Z,23.90
2023-02-07T09:10:04.943Z,23.10
2023-02-07T09:11:39.925Z,23.27
2023-02-07T09:13:11.683Z,23.08
2023-02-07T09:14:43.584Z,22.45
2023-02-07T09:16:15.705Z,23.23
2023-02-07T09:17:47.494Z,22.95
2023-02-07T09:19:20.522Z,23.38
2023-02-07T09:20:52.431Z,23.17
2023-02-07T09:22:27.458Z,21.23
2023-02-07T09:23:59.490Z,23.10
2023-02-07T09:25:31.273Z,22.50
2023-02-07T09:27:03.262Z,22.88
2023-02-07T09:28:35.976Z,22.67
2023-02-07T09:30:08.381Z,22.33
2023-02-07T09:31:40.150Z,22.58
2023-02-07T09:33:12.121Z,23.42
2023-02-07T09:34:45.237Z,22.92
2023-02-07T09:36:20.294Z,22.30
2023-02-07T09:37:53.024Z,23.25
2023-02-07T09:39:24.762Z,23.83
2023-02-07T09:40:57.974Z,24.65
2023-02-07T09:42:35.157Z,22.67
2023-02-07T09:44:13.208Z,22.33
2023-02-07T09:45:46.058Z,21.80
2023-02-07T09:47:18.657Z,21.80
2023-02-07T09:48:52.146Z,22.30
2023-02-07T09:50:27.415Z,22.05
2023-02-07T09:51:59.539Z,19.80
2023-02-07T09:53:34.699Z,21.98
2023-02-07T09:55:06.759Z,22.10
2023-02-07T09:56:38.499Z,20.15
2023-02-07T09:58:13.774Z,21.50
2023-02-07T09:59:49.823Z,20.27
2023-02-07T10:01:22.790Z,21.40
2023-02-07T10:02:57.781Z,20.40
2023-02-07T10:04:32.758Z,20.70
2023-02-07T10:06:17.884Z,20.60
2023-02-07T10:07:50.130Z,20.52
2023-02-07T10:09:24.133Z,20.08
2023-02-07T10:11:04.355Z,19.45
2023-02-07T10:13:01.407Z,20.50
2023-02-07T10:14:52.757Z,19.88
2023-02-07T10:16:33.435Z,19.20
2023-02-07T10:18:22.640Z,19.58
2023-02-07T10:19:57.504Z,19.40
2023-02-07T10:21:32.287Z,19.35
2023-02-07T10:23:13.572Z,19.50
2023-02-07T10:25:08.888Z,20.63
2023-02-07T10:26:42.949Z,23.45
2023-02-07T10:28:35.905Z,22.65
2023-02-07T10:30:10.665Z,23.50
2023-02-07T10:31:44.502Z,22.83
2023-02-07T10:33:17.218Z,23.90
2023-02-07T10:34:50.118Z,22.60
2023-02-07T10:36:23.168Z,23.38
2023-02-07T10:37:57.081Z,22.83
2023-02-07T10:39:30.045Z,21.60
2023-02-07T10:41:03.059Z,21.08
2023-02-07T10:42:36.527Z,22.30
2023-02-07T10:44:11.590Z,21.60
2023-02-07T10:45:43.362Z,22.17
2023-02-07T10:47:16.641Z,21.98
2023-02-07T10:48:48.563Z,20.63
2023-02-07T10:50:29.695Z,21.30
2023-02-07T10:52:03.401Z,21.27
2023-02-07T10:53:54.184Z,21.95
2023-02-07T10:55:38.098Z,21.02
2023-02-07T10:57:14.636Z,20.88
2023-02-07T10:58:46.320Z,21.83
2023-02-07T11:00:23.246Z,21.80
2023-02-07T11:01:55.015Z,21.92
2023-02-07T11:03:26.889Z,21.20
2023-02-07T11:04:59.254Z,22.17
2023-02-07T11:06:32.092Z,21.95
2023-02-07T11:08:04.932Z,21.30
2023-02-07T11:09:38.028Z,19.58
2023-02-07T11:11:25.455Z,21.40
2023-02-07T11:12:57.912Z,20.73
2023-02-07T11:14:31.153Z,21.50
2023-02-07T11:16:07.876Z,20.35
2023-02-07T11:17:39.996Z,21.13
2023-02-07T11:19:17.227Z,21.17
2023-02-07T11:20:49.076Z,22.30
2023-02-07T11:22:21.439Z,22.27
2023-02-07T11:23:55.774Z,23.33
2023-02-07T11:25:29.571Z,21.52
2023-02-07T11:27:02.370Z,22.58
2023-02-07T11:28:34.383Z,22.55
2023-02-07T11:30:07.819Z,20.77
2023-02-07T11:31:39.582Z,22.23
2023-02-07T11:33:16.934Z,21.63
2023-02-07T11:34:49.515Z,22.50
2023-02-07T11:36:23.431Z,22.00
2023-02-07T11:38:03.631Z,22.70
2023-02-07T11:39:36.362Z,22.20
2023-02-07T11:41:20.058Z,23.88
2023-02-07T11:42:58.839Z,23.73
2023-02-07T11:44:30.865Z,22.75
2023-02-07T11:46:06.023Z,22.95
2023-02-07T11:47:38.405Z,22.15
2023-02-07T11:49:20.257Z,22.42
2023-02-07T11:50:53.352Z,21.95
2023-02-07T11:52:27.754Z,22.92
2023-02-07T11:54:00.742Z,22.98
2023-02-07T11:55:35.664Z,23.92
2023-02-07T11:57:11.807Z,24.90
2023-02-07T11:58:47.416Z,23.65
2023-02-07T12:00:21.217Z,22.67
2023-02-07T12:01:54.206Z,23.00
2023-02-07T12:03:26.802Z,23.20
2023-02-07T12:05:10.098Z,23.80
2023-02-07T12:06:42.522Z,22.48
2023-02-07T12:08:15.985Z,24.00
2023-02-07T12:09:49.353Z,23.08
2023-02-07T12:11:22.922Z,23.67
2023-02-07T12:12:57.688Z,22.50
2023-02-07T12:14:32.820Z,23.40
2023-02-07T12:16:07.852Z,23.30
2023-02-07T12:17:41.470Z,23.63
2023-02-07T12:19:15.738Z,23.45
2023-02-07T12:20:50.528Z,22.88
2023-02-07T12:22:23.790Z,24.15
2023-02-07T12:23:56.856Z,23.08
2023-02-07T12:25:30.085Z,23.90
2023-02-07T12:27:05.241Z,23.73
2023-02-07T12:28:40.734Z,24.10
2023-02-07T12:30:22.349Z,23.60
2023-02-07T12:32:04.838Z,23.48
2023-02-07T12:33:41.425Z,24.77
2023-02-07T12:35:16.549Z,24.08
2023-02-07T12:36:50.136Z,23.83
2023-02-07T12:38:23.864Z,24.65
2023-02-07T12:39:59.664Z,23.15
2023-02-07T12:41:34.172Z,25.50
2023-02-07T12:43:08.602Z,24.10
2023-02-07T12:44:47.091Z,24.27
2023-02-07T12:46:23.356Z,24.98
2023-02-07T12:47:58.294Z,24.83
2023-02-07T12:49:38.849Z,24.00
2023-02-07T12:51:17.604Z,23.85
2023-02-07T12:52:54.840Z,24.52
2023-02-07T12:54:35.158Z,23.92
2023-02-07T12:56:14.428Z,24.38
2023-02-07T12:57:59.932Z,22.63
2023-02-07T12:59:40.510Z,23.48
2023-02-07T13:01:16.031Z,22.65
2023-02-07T13:02:55.651Z,22.73
2023-02-07T13:04:36.484Z,22.58
2023-02-07T13:06:11.662Z,24.35
2023-02-07T13:07:48.293Z,23.70
2023-02-07T13:09:22.080Z,22.42
2023-02-07T13:10:57.553Z,23.08
2023-02-07T13:12:30.579Z,23.02
2023-02-07T13:14:10.274Z,24.35
2023-02-07T13:15:44.880Z,24.48
2023-02-07T13:17:29.092Z,24.17
2023-02-07T13:19:04.272Z,23.42
2023-02-07T13:20:47.745Z,22.38
2023-02-07T13:22:23.976Z,23.48
2023-02-07T13:23:58.420Z,23.65
2023-02-07T13:25:31.075Z,23.63
2023-02-07T13:27:05.533Z,24.25
2023-02-07T13:28:40.576Z,22.33
2023-02-07T13:30:13.894Z,23.85
2023-02-07T13:31:46.781Z,22.80
2023-02-07T13:33:26.093Z,21.83
2023-02-07T13:34:58.503Z,21.45
2023-02-07T13:36:32.365Z,23.00
2023-02-07T13:38:07.242Z,22.08
2023-02-07T13:39:43.104Z,22.02
2023-02-07T13:41:17.329Z,23.58
2023-02-07T13:42:50.548Z,21.95
2023-02-07T13:44:25.225Z,21.90
2023-02-07T13:46:00.845Z,23.25
2023-02-07T13:47:47.686Z,23.52
2023-02-07T13:49:23.792Z,22.80
2023-02-07T13:51:00.832Z,28.27
2023-02-07T13:52:34.783Z,29.20
2023-02-07T13:54:10.414Z,27.50
2023-02-07T13:55:42.237Z,27.30
2023-02-07T13:57:39.860Z,24.40
2023-02-07T13:59:39.148Z,22.27
2023-02-07T14:01:15.729Z,22.52
2023-02-07T14:02:48.484Z,21.00
2023-02-07T14:04:21.850Z,22.08
2023-02-07T14:05:53.557Z,23.98
2023-02-07T14:07:29.795Z,22.42
2023-02-07T14:09:02.813Z,22.77
2023-02-07T14:10:47.390Z,24.05
2023-02-07T14:12:20.993Z,21.45
2023-02-07T14:13:55.902Z,21.67
2023-02-07T14:15:55.839Z,21.58
2023-02-07T14:17:58.792Z,21.98
2023-02-07T14:19:51.831Z,22.25
2023-02-07T14:21:30.090Z,20.83
2023-02-07T14:23:11.184Z,21.35
2023-02-07T14:24:48.676Z,22.17
2023-02-07T14:26:53.886Z,22.08
2023-02-07T14:28:32.735Z,20.48
2023-02-07T14:30:19.308Z,21.67
2023-02-07T14:31:51.445Z,20.73
2023-02-07T14:33:23.303Z,19.48
2023-02-07T14:35:00.916Z,20.90
2023-02-07T14:36:32.637Z,20.75
2023-02-07T14:38:20.788Z,19.65
2023-02-07T14:39:52.453Z,19.20
2023-02-07T14:41:27.062Z,19.35
2023-02-07T14:43:00.192Z,19.15
2023-02-07T14:44:34.055Z,19.42
2023-02-07T14:47:57.193Z,20.55
2023-02-07T14:49:31.592Z,19.65
2023-02-07T14:51:04.984Z,19.90
2023-02-07T14:52:36.967Z,20.52
2023-02-07T14:54:13.425Z,21.48
2023-02-07T14:55:48.038Z,20.27
2023-02-07T14:57:25.749Z,20.77
2023-02-07T14:58:57.730Z,20.80
2023-02-07T15:00:32.022Z,21.05
2023-02-07T15:02:32.582Z,20.85
2023-02-07T15:04:05.484Z,21.17
2023-02-07T15:05:37.926Z,21.48
2023-02-07T15:07:11.813Z,21.02
2023-02-07T15:08:55.185Z,22.75
2023-02-07T15:10:27.899Z,21.27
2023-02-07T15:12:12.687Z,21.58
2023-02-07T15:13:45.365Z,21.33
2023-02-07T15:15:18.971Z,21.70
2023-02-07T15:16:50.704Z,21.38
2023-02-07T15:18:25.626Z,20.88
2023-02-07T15:19:57.347Z,21.98
2023-02-07T15:21:31.967Z,21.33
2023-02-07T15:23:07.439Z,21.20
2023-02-07T15:24:50.956Z,21.58
2023-02-07T15:26:23.522Z,22.17
2023-02-07T15:28:02.168Z,21.70
2023-02-07T15:29:34.659Z,21.75
2023-02-07T15:31:07.187Z,22.40
2023-02-07T15:32:42.642Z,23.42
2023-02-07T15:34:17.561Z,21.98
2023-02-07T15:35:49.205Z,23.15
2023-02-07T15:37:21.742Z,22.67
2023-02-07T15:38:57.569Z,22.45
2023-02-07T15:40:29.204Z,23.17
2023-02-07T15:42:00.846Z,23.15
2023-02-07T15:43:33.511Z,24.20
2023-02-07T15:45:10.660Z,23.23
2023-02-07T15:46:48.652Z,25.63
2023-02-07T15:48:20.318Z,24.23
2023-02-07T15:49:58.121Z,24.42
2023-02-07T15:51:30.994Z,24.05
2023-02-07T15:53:03.567Z,23.85
2023-02-07T15:54:38.768Z,22.90
2023-02-07T15:56:14.917Z,23.92
2023-02-07T15:57:46.761Z,23.00
2023-02-07T15:59:24.132Z,24.40
2023-02-07T16:01:01.439Z,23.20
2023-02-07T16:02:34.680Z,24.42
2023-02-07T16:04:09.528Z,22.92
2023-02-07T16:05:41.868Z,24.48
2023-02-07T16:07:14.697Z,23.88
2023-02-07T16:08:46.931Z,23.20
2023-02-07T16:10:33.151Z,26.50
2023-02-07T16:12:37.434Z,24.67
2023-02-07T16:14:19.370Z,25.25
2023-02-07T16:15:55.681Z,24.77
2023-02-07T16:17:42.482Z,24.90
2023-02-07T16:19:16.641Z,25.65
2023-02-07T16:20:48.766Z,25.80
2023-02-07T16:22:31.353Z,25.08
2023-02-07T16:24:05.564Z,24.85
2023-02-07T16:25:41.719Z,24.15
2023-02-07T16:27:16.222Z,24.58
2023-02-07T16:28:49.820Z,24.48
2023-02-07T16:30:27.026Z,24.02
2023-02-07T16:31:58.745Z,25.10
2023-02-07T16:33:30.467Z,26.25
2023-02-07T16:35:03.183Z,24.65
2023-02-07T16:36:35.458Z,25.60
2023-02-07T16:38:07.189Z,24.25
2023-02-07T16:39:39.491Z,25.10
2023-02-07T16:41:20.289Z,25.10
2023-02-07T16:43:01.698Z,24.50
2023-02-07T16:44:34.418Z,25.30
2023-02-07T16:46:44.025Z,25.83
2023-02-07T16:48:16.012Z,25.77
2023-02-07T16:49:47.730Z,27.63
2023-02-07T16:51:19.372Z,24.92
2023-02-07T16:52:51.653Z,25.17
2023-02-07T16:54:23.353Z,25.13
2023-02-07T16:55:55.661Z,25.20
2023-02-07T16:57:28.683Z,25.52
2023-02-07T16:59:00.324Z,25.02
2023-02-07T17:00:32.067Z,26.52
2023-02-07T17:02:06.280Z,25.70
2023-02-07T17:03:38.171Z,26.02
2023-02-07T17:05:09.947Z,29.17
2023-02-07T17:06:42.472Z,26.50
2023-02-07T17:08:14.545Z,25.95
2023-02-07T17:09:49.333Z,28.13
2023-02-07T17:11:25.183Z,26.80
2023-02-07T17:12:58.214Z,26.10
2023-02-07T17:14:29.847Z,25.58
2023-02-07T17:16:01.594Z,25.45
2023-02-07T17:17:33.360Z,26.33
2023-02-07T17:19:10.335Z,25.70
2023-02-07T17:20:42.213Z,26.83
2023-02-07T17:22:14.498Z,25.65
2023-02-07T17:23:47.698Z,26.10
2023-02-07T17:25:19.856Z,27.67
2023-02-07T17:26:53.086Z,27.98
2023-02-07T17:28:26.191Z,27.98
2023-02-07T17:29:57.831Z,26.55
2023-02-07T17:31:29.574Z,28.20
2023-02-07T17:33:01.277Z,26.48
2023-02-07T17:34:32.904Z,26.42
2023-02-07T17:36:05.052Z,26.92
2023-02-07T17:37:36.814Z,27.23
2023-02-07T17:39:10.705Z,28.10
2023-02-07T17:40:42.711Z,27.25
2023-02-07T17:42:14.299Z,26.92
2023-02-07T17:43:47.288Z,26.52
2023-02-07T17:45:18.957Z,26.38
2023-02-07T17:46:50.642Z,25.63
2023-02-07T17:48:22.349Z,26.23
2023-02-07T17:49:53.994Z,26.45
2023-02-07T17:51:26.777Z,27.38
2023-02-07T17:52:58.634Z,27.10
2023-02-07T17:54:30.244Z,25.73
2023-02-07T17:56:01.821Z,26.95
2023-02-07T17:57:33.468Z,27.65
2023-02-07T17:59:06.973Z,27.42
2023-02-07T18:00:41.633Z,26.08
2023-02-07T18:02:13.526Z,26.27
2023-02-07T18:03:45.300Z,28.02
2023-02-07T18:05:17.940Z,26.25
2023-02-07T18:06:49.582Z,27.27
2023-02-07T18:08:21.206Z,26.73
2023-02-07T18:09:52.830Z,25.58
2023-02-07T18:11:24.569Z,25.95
2023-02-07T18:12:56.231Z,26.65
2023-02-07T18:14:30.302Z,26.63
2023-02-07T18:16:02.246Z,25.77
2023-02-07T18:17:33.958Z,25.85
2023-02-07T18:19:05.674Z,25.20
2023-02-07T18:20:37.479Z,25.63
2023-02-07T18:22:09.359Z,27.58
2023-02-07T18:23:42.897Z,26.38
2023-02-07T18:25:14.836Z,25.88
2023-02-07T18:26:47.156Z,26.52
2023-02-07T18:28:18.903Z,25.52
2023-02-07T18:29:52.020Z,25.90
2023-02-07T18:31:26.748Z,26.10
2023-02-07T18:32:58.796Z,25.80
2023-02-07T18:34:30.527Z,24.73
2023-02-07T18:36:02.164Z,25.65
2023-02-07T18:37:33.807Z,25.15
2023-02-07T18:39:05.475Z,26.00
2023-02-07T18:40:40.276Z,26.90
2023-02-07T18:42:13.746Z,24.92
2023-02-07T18:43:45.611Z,25.67
2023-02-07T18:45:21.501Z,26.27
2023-02-07T18:46:53.138Z,24.55
2023-02-07T18:48:24.785Z,25.65
2023-02-07T18:49:56.456Z,24.08
2023-02-07T18:51:28.373Z,25.42
2023-02-07T18:53:00.225Z,25.77
2023-02-07T18:54:31.836Z,24.95
2023-02-07T18:56:04.546Z,24.55
2023-02-07T18:57:36.270Z,24.67
2023-02-07T18:59:09.295Z,25.27
2023-02-07T19:00:43.376Z,26.27
2023-02-07T19:02:15.021Z,24.83
2023-02-07T19:03:48.309Z,23.17
2023-02-07T19:05:20.616Z,24.38
2023-02-07T19:06:52.998Z,23.20
2023-02-07T19:08:24.656Z,24.50
2023-02-07T19:09:56.299Z,22.63
2023-02-07T19:11:27.930Z,23.05
2023-02-07T19:12:59.579Z,22.83
2023-02-07T19:14:31.883Z,22.10
2023-02-07T19:16:05.913Z,21.42
2023-02-07T19:17:37.620Z,22.63
2023-02-07T19:19:09.271Z,23.33
2023-02-07T19:20:41.188Z,21.58
2023-02-07T19:22:13.074Z,21.65
2023-02-07T19:23:44.781Z,20.70
2023-02-07T19:25:16.568Z,21.20
2023-02-07T19:26:49.303Z,21.95
2023-02-07T19:28:21.119Z,21.15
2023-02-07T19:29:52.865Z,22.25
2023-02-07T19:31:29.107Z,20.77
2023-02-07T19:33:00.871Z,19.95
2023-02-07T19:34:32.618Z,19.38
2023-02-07T19:36:05.658Z,20.15
2023-02-07T19:37:37.270Z,19.58
2023-02-07T19:39:09.020Z,19.95
2023-02-07T19:40:41.049Z,19.48
2023-02-07T19:42:13.066Z,19.25
2023-02-07T19:43:44.738Z,19.10
2023-02-07T19:45:19.416Z,19.23
2023-02-07T19:46:52.414Z,19.52
2023-02-07T19:48:24.063Z,20.33
2023-02-07T19:49:55.697Z,19.08
2023-02-07T19:51:28.666Z,18.20
2023-02-07T19:53:00.316Z,19.48
2023-02-07T19:54:32.004Z,18.45
2023-02-07T19:56:04.842Z,18.35
2023-02-07T19:57:36.512Z,18.40
2023-02-07T19:59:08.709Z,18.30
2023-02-07T20:00:40.742Z,17.67
2023-02-07T20:02:14.873Z,17.90
2023-02-07T20:03:51.091Z,18.45
2023-02-07T20:05:22.836Z,18.15
2023-02-07T20:06:54.760Z,18.17
2023-02-07T20:08:26.687Z,17.50
2023-02-07T20:09:58.821Z,18.63
2023-02-07T20:11:30.556Z,17.50
2023-02-07T20:13:02.216Z,17.55
2023-02-07T20:14:33.867Z,18.70
2023-02-07T20:16:08.992Z,18.15
2023-02-07T20:17:42.049Z,18.35
2023-02-07T20:19:13.673Z,18.40
2023-02-07T20:20:47.960Z,18.15
2023-02-07T20:22:20.075Z,18.48
2023-02-07T20:23:52.373Z,19.30
2023-02-07T20:25:33.185Z,17.95
2023-02-07T20:27:04.826Z,17.67
2023-02-07T20:28:36.604Z,17.92
2023-02-07T20:30:09.207Z,17.48
2023-02-07T20:31:41.061Z,17.80
2023-02-07T20:33:16.705Z,16.98
2023-02-07T20:34:48.662Z,17.70
2023-02-07T20:36:20.706Z,17.67